createdAt,value
2023-03-06T00:01:34.293Z,14.00
2023-03-06T00:04:00.902Z,13.35
2023-03-06T00:06:27.570Z,13.55
2023-03-06T00:08:54.626Z,11.32
2023-03-06T00:11:21.289Z,15.65
2023-03-06T00:13:47.919Z,15.38
2023-03-06T00:16:14.987Z,13.10
2023-03-06T00:18:44.015Z,11.95
2023-03-06T00:21:10.628Z,11.23
2023-03-06T00:23:37.275Z,11.32
2023-03-06T00:26:09.993Z,13.57
2023-03-06T00:28:38.113Z,13.75
2023-03-06T00:31:04.937Z,15.95
2023-03-06T00:33:31.572Z,11.60
2023-03-06T00:35:58.221Z,11.63
2023-03-06T00:38:27.511Z,11.98
2023-03-06T00:40:56.383Z,10.30
2023-03-06T00:43:23.025Z,12.57
2023-03-06T00:45:49.656Z,12.00
2023-03-06T00:48:17.364Z,13.95
2023-03-06T00:50:44.019Z,11.23
2023-03-06T00:53:13.219Z,11.20
2023-03-06T00:55:43.692Z,12.82
2023-03-06T00:58:10.273Z,10.73
2023-03-06T01:00:37.460Z,10.82
2023-03-06T01:03:04.817Z,12.38
2023-03-06T01:05:35.106Z,11.65
2023-03-06T01:08:01.759Z,13.98
2023-03-06T01:10:28.712Z,12.57
2023-03-06T01:12:55.912Z,10.73
2023-03-06T01:15:23.195Z,14.98
2023-03-06T01:17:54.717Z,11.88
2023-03-06T01:20:21.430Z,12.63
2023-03-06T01:22:48.106Z,12.32
2023-03-06T01:25:14.897Z,14.27
2023-03-06T01:27:42.527Z,11.50
2023-03-06T01:30:11.336Z,12.25
2023-03-06T01:32:38.609Z,13.15
2023-03-06T01:35:06.450Z,12.68
2023-03-06T01:37:36.046Z,14.30
2023-03-06T01:40:04.426Z,15.23
2023-03-06T01:42:32.201Z,12.43
2023-03-06T01:45:07.188Z,11.48
2023-03-06T01:47:34.915Z,11.55
2023-03-06T01:50:04.065Z,12.02
2023-03-06T01:52:35.530Z,11.32
2023-03-06T01:55:09.626Z,11.20
2023-03-06T01:57:44.422Z,13.38
2023-03-06T02:00:16.839Z,13.50
2023-03-06T02:03:15.831Z,14.30
2023-03-06T02:05:43.759Z,13.70
2023-03-06T02:08:13.226Z,12.90
2023-03-06T02:10:57.146Z,15.48
2023-03-06T02:13:23.797Z,14.63
2023-03-06T02:15:52.012Z,15.63
2023-03-06T02:18:19.618Z,13.10
2023-03-06T02:20:51.080Z,13.48
2023-03-06T02:23:56.653Z,14.00
2023-03-06T02:26:24.464Z,11.75
2023-03-06T02:28:51.066Z,11.65
2023-03-06T02:31:29.097Z,12.02
2023-03-06T02:34:14.134Z,14.98
2023-03-06T02:36:49.232Z,13.25
2023-03-06T02:39:19.991Z,13.35
2023-03-06T02:41:46.621Z,15.05
2023-03-06T02:44:14.471Z,12.73
2023-03-06T02:46:42.401Z,14.57
2023-03-06T02:49:09.921Z,15.50
2023-03-06T02:51:36.538Z,14.40
2023-03-06T02:54:03.176Z,15.00
2023-03-06T02:56:29.990Z,12.52
2023-03-06T02:58:57.324Z,14.82
2023-03-06T03:01:25.105Z,10.15
2023-03-06T03:03:52.328Z,11.85
2023-03-06T03:06:20.999Z,13.60
2023-03-06T03:08:48.764Z,14.10
2023-03-06T03:11:16.099Z,14.55
2023-03-06T03:13:44.295Z,13.05
2023-03-06T03:16:19.047Z,13.40
2023-03-06T03:18:47.826Z,14.02
2023-03-06T03:21:16.498Z,13.38
2023-03-06T03:23:44.335Z,13.38
2023-03-06T03:26:17.293Z,15.25
2023-03-06T03:28:48.909Z,15.55
2023-03-06T03:31:18.404Z,15.32
2023-03-06T03:33:45.284Z,13.85
2023-03-06T03:36:12.946Z,12.82
2023-03-06T03:38:44.306Z,16.33
2023-03-06T03:41:11.379Z,12.63
2023-03-06T03:43:38.084Z,14.57
2023-03-06T03:46:06.039Z,12.65
2023-03-06T03:48:32.980Z,11.75
2023-03-06T03:51:13.097Z,12.77
2023-03-06T03:53:44.952Z,14.15
2023-03-06T03:56:14.144Z,13.65
2023-03-06T03:58:50.035Z,12.00
2023-03-06T04:01:16.952Z,15.02
2023-03-06T04:03:43.783Z,13.93
2023-03-06T04:06:11.668Z,11.95
2023-03-06T04:08:39.122Z,10.98
2023-03-06T04:11:06.205Z,11.68
2023-03-06T04:13:32.971Z,13.30
2023-03-06T04:15:59.946Z,13.43
2023-03-06T04:18:28.994Z,13.02
2023-03-06T04:20:59.605Z,13.40
2023-03-06T04:23:27.900Z,13.55
2023-03-06T04:25:55.329Z,13.02
2023-03-06T04:28:22.953Z,11.82
2023-03-06T04:30:49.935Z,14.15
2023-03-06T04:33:17.505Z,14.10
2023-03-06T04:35:44.734Z,16.00
2023-03-06T04:38:17.480Z,13.85
2023-03-06T04:40:45.028Z,13.98
2023-03-06T04:43:12.267Z,15.63
2023-03-06T04:45:39.073Z,16.00
2023-03-06T04:48:06.089Z,15.38
2023-03-06T04:50:32.845Z,15.48
2023-03-06T04:53:01.842Z,13.43
2023-03-06T04:55:28.892Z,14.80
2023-03-06T04:57:56.060Z,12.55
2023-03-06T05:00:25.250Z,13.38
2023-03-06T05:02:52.442Z,16.13
2023-03-06T05:05:19.119Z,15.35
2023-03-06T05:07:45.828Z,14.30
2023-03-06T05:10:16.164Z,14.38
2023-03-06T05:12:43.430Z,17.67
2023-03-06T05:15:11.662Z,17.10
2023-03-06T05:17:39.018Z,15.85
2023-03-06T05:20:10.113Z,15.20
2023-03-06T05:22:36.793Z,15.90
2023-03-06T05:25:04.885Z,12.88
2023-03-06T05:27:31.692Z,15.77
2023-03-06T05:29:58.568Z,13.90
2023-03-06T05:32:25.231Z,15.30
2023-03-06T05:34:51.976Z,13.38
2023-03-06T05:37:18.640Z,13.18
2023-03-06T05:39:45.544Z,14.50
2023-03-06T05:42:12.146Z,13.18
2023-03-06T05:44:38.746Z,13.68
2023-03-06T05:47:05.681Z,12.95
2023-03-06T05:49:34.968Z,13.38
2023-03-06T05:52:06.717Z,12.82
2023-03-06T05:54:34.781Z,16.10
2023-03-06T05:57:02.714Z,14.25
2023-03-06T05:59:29.344Z,14.80
2023-03-06T06:01:56.538Z,13.63
2023-03-06T06:04:25.132Z,16.40
2023-03-06T06:06:54.456Z,14.80
2023-03-06T06:09:22.446Z,14.68
2023-03-06T06:12:09.493Z,14.93
2023-03-06T06:14:36.410Z,14.98
2023-03-06T06:17:03.188Z,15.30
2023-03-06T06:19:31.621Z,14.27
2023-03-06T06:21:58.695Z,12.38
2023-03-06T06:24:26.620Z,15.38
2023-03-06T06:26:55.139Z,13.32
2023-03-06T06:29:22.904Z,14.45
2023-03-06T06:31:49.757Z,14.18
2023-03-06T06:34:16.941Z,12.50
2023-03-06T06:36:44.127Z,14.88
2023-03-06T06:39:13.529Z,13.95
2023-03-06T06:41:56.917Z,15.32
2023-03-06T06:44:27.141Z,14.23
2023-03-06T06:49:40.561Z,17.90
2023-03-06T06:52:07.386Z,14.90
2023-03-06T06:54:34.777Z,14.40
2023-03-06T06:57:01.656Z,16.80
2023-03-06T06:59:28.268Z,13.57
2023-03-06T07:01:54.877Z,17.13
2023-03-06T07:04:21.585Z,16.50
2023-03-06T07:06:48.420Z,15.90
2023-03-06T07:09:15.036Z,15.90
2023-03-06T07:11:41.724Z,14.30
2023-03-06T07:14:08.576Z,15.05
2023-03-06T07:16:35.293Z,14.27
2023-03-06T07:19:03.339Z,12.32
2023-03-06T07:21:30.406Z,14.90
2023-03-06T07:23:57.689Z,14.55
2023-03-06T07:26:28.010Z,13.52
2023-03-06T07:28:55.037Z,13.80
2023-03-06T07:31:24.475Z,16.67
2023-03-06T07:33:52.870Z,17.50
2023-03-06T07:36:20.987Z,15.85
2023-03-06T07:38:48.008Z,20.25
2023-03-06T07:41:16.370Z,15.45
2023-03-06T07:43:45.132Z,18.08
2023-03-06T07:46:14.179Z,18.13
2023-03-06T07:48:41.733Z,14.13
2023-03-06T07:51:14.193Z,14.48
2023-03-06T07:53:40.888Z,16.85
2023-03-06T07:56:09.061Z,13.80
2023-03-06T07:58:37.742Z,18.67
2023-03-06T08:01:11.820Z,15.02
2023-03-06T08:03:39.222Z,16.45
2023-03-06T08:06:12.836Z,16.35
2023-03-06T08:08:41.086Z,15.07
2023-03-06T08:11:09.247Z,19.23
2023-03-06T08:13:36.519Z,14.98
2023-03-06T08:16:03.399Z,13.30
2023-03-06T08:18:30.060Z,16.70
2023-03-06T08:21:11.409Z,15.30
2023-03-06T08:23:38.867Z,19.50
2023-03-06T08:26:12.558Z,15.50
2023-03-06T08:28:39.394Z,14.98
2023-03-06T08:31:20.084Z,17.40
2023-03-06T08:33:47.084Z,17.23
2023-03-06T08:36:13.714Z,18.58
2023-03-06T08:38:40.385Z,18.73
2023-03-06T08:41:07.038Z,17.55
2023-03-06T08:43:35.720Z,15.77
2023-03-06T08:46:02.636Z,15.32
2023-03-06T08:48:30.504Z,15.13
2023-03-06T08:50:57.145Z,16.13
2023-03-06T08:53:42.145Z,14.68
2023-03-06T08:56:19.953Z,16.02
2023-03-06T08:58:47.578Z,16.67
2023-03-06T09:01:23.245Z,14.90
2023-03-06T09:03:50.717Z,17.98
2023-03-06T09:06:17.497Z,14.93
2023-03-06T09:08:44.634Z,14.07
2023-03-06T09:11:13.292Z,15.65
2023-03-06T09:13:40.661Z,15.15
2023-03-06T09:16:08.922Z,15.32
2023-03-06T09:18:36.058Z,15.55
2023-03-06T09:21:05.642Z,13.95
2023-03-06T09:23:32.693Z,15.85
2023-03-06T09:26:00.647Z,15.75
2023-03-06T09:28:27.573Z,15.68
2023-03-06T09:30:54.723Z,17.35
2023-03-06T09:33:21.525Z,16.75
2023-03-06T09:35:51.059Z,14.35
2023-03-06T09:38:18.888Z,17.10
2023-03-06T09:40:55.340Z,13.85
2023-03-06T09:43:29.104Z,16.35
2023-03-06T09:45:57.172Z,16.00
2023-03-06T09:48:38.211Z,19.05
2023-03-06T09:51:15.128Z,15.50
2023-03-06T09:54:17.150Z,19.67
2023-03-06T09:56:48.943Z,15.77
2023-03-06T09:59:23.328Z,19.63
2023-03-06T10:02:09.488Z,16.13
2023-03-06T10:04:42.456Z,14.55
2023-03-06T10:07:21.567Z,19.17
2023-03-06T10:09:57.182Z,18.50
2023-03-06T10:12:35.646Z,16.75
2023-03-06T10:15:19.539Z,16.40
2023-03-06T10:17:46.288Z,15.68
2023-03-06T10:20:19.018Z,17.45
2023-03-06T10:25:33.519Z,16.48
2023-03-06T10:28:12.344Z,16.85
2023-03-06T10:31:00.433Z,16.05
2023-03-06T10:33:46.755Z,18.70
2023-03-06T10:36:18.655Z,21.33
2023-03-06T10:38:48.376Z,17.02
2023-03-06T10:41:35.232Z,21.65
2023-03-06T10:44:04.986Z,16.98
2023-03-06T10:46:37.275Z,19.25
2023-03-06T10:49:24.722Z,18.05
2023-03-06T10:52:03.394Z,18.92
2023-03-06T10:54:33.378Z,18.33
2023-03-06T10:57:18.807Z,19.02
2023-03-06T10:59:54.506Z,22.95
2023-03-06T11:02:25.912Z,19.70
2023-03-06T11:04:54.258Z,18.88
2023-03-06T11:07:34.825Z,20.92
2023-03-06T11:10:20.940Z,21.08
2023-03-06T11:13:02.990Z,21.90
2023-03-06T11:15:30.122Z,23.07
2023-03-06T11:18:04.902Z,21.27
2023-03-06T11:20:51.158Z,19.63
2023-03-06T11:23:21.045Z,18.80
2023-03-06T11:25:54.756Z,20.08
2023-03-06T11:28:27.413Z,19.45
2023-03-06T11:31:00.274Z,21.83
2023-03-06T11:33:36.348Z,24.10
2023-03-06T11:36:12.070Z,19.42
2023-03-06T11:38:49.451Z,24.67
2023-03-06T11:41:26.745Z,19.48
2023-03-06T11:43:58.015Z,20.42
2023-03-06T11:46:33.227Z,18.30
2023-03-06T11:49:16.949Z,19.45
2023-03-06T11:51:51.511Z,24.10
2023-03-06T11:54:18.141Z,20.80
2023-03-06T11:56:55.139Z,21.33
2023-03-06T11:59:59.658Z,22.65
2023-03-06T12:02:39.911Z,21.27
2023-03-06T12:05:32.674Z,19.77
2023-03-06T12:08:37.262Z,20.50
2023-03-06T12:14:19.308Z,20.17
2023-03-06T12:17:28.973Z,19.38
2023-03-06T12:20:07.904Z,21.80
2023-03-06T12:22:57.975Z,21.83
2023-03-06T12:25:36.589Z,21.52
2023-03-06T12:28:29.676Z,17.70
2023-03-06T12:31:04.703Z,21.38
2023-03-06T12:33:58.611Z,24.42
2023-03-06T12:36:52.721Z,21.15
2023-03-06T12:39:43.102Z,23.17
2023-03-06T12:42:48.580Z,19.77
2023-03-06T12:45:21.405Z,17.95
2023-03-06T12:47:51.289Z,17.75
2023-03-06T12:50:26.161Z,18.23
2023-03-06T12:52:56.033Z,23.85
2023-03-06T12:55:25.911Z,20.33
2023-03-06T12:57:53.963Z,21.60
2023-03-06T13:00:33.965Z,20.00
2023-03-06T13:03:44.884Z,19.33
2023-03-06T13:06:44.989Z,21.42
2023-03-06T13:09:29.676Z,24.95
2023-03-06T13:12:25.202Z,20.80
2023-03-06T13:15:30.474Z,21.95
2023-03-06T13:17:57.327Z,22.70
2023-03-06T13:20:39.452Z,19.52
2023-03-06T13:23:35.139Z,18.70
2023-03-06T13:26:25.933Z,19.77
2023-03-06T13:28:57.915Z,22.50
2023-03-06T13:31:33.888Z,19.30
2023-03-06T13:34:06.233Z,22.25
2023-03-06T13:36:33.646Z,22.08
2023-03-06T13:39:11.001Z,19.67
2023-03-06T13:41:44.982Z,19.88
2023-03-06T13:44:40.776Z,24.95
2023-03-06T13:47:30.960Z,16.25
2023-03-06T13:49:58.929Z,19.77
2023-03-06T13:52:38.277Z,19.90
2023-03-06T13:55:29.949Z,19.08
2023-03-06T13:57:56.540Z,20.73
2023-03-06T14:01:00.360Z,23.73
2023-03-06T14:03:48.439Z,19.88
2023-03-06T14:06:42.337Z,18.33
2023-03-06T14:09:27.300Z,20.92
2023-03-06T14:12:16.840Z,21.25
2023-03-06T14:14:48.670Z,21.30
2023-03-06T14:17:24.187Z,20.70
2023-03-06T14:19:51.514Z,19.63
2023-03-06T14:22:23.035Z,15.85
2023-03-06T14:25:01.333Z,20.27
2023-03-06T14:27:51.400Z,22.15
2023-03-06T14:30:21.309Z,18.27
2023-03-06T14:32:50.819Z,23.42
2023-03-06T14:35:29.440Z,18.90
2023-03-06T14:38:00.640Z,16.75
2023-03-06T14:40:35.252Z,19.63
2023-03-06T14:43:26.972Z,20.20
2023-03-06T14:45:59.658Z,19.10
2023-03-06T14:48:41.291Z,18.70
2023-03-06T14:51:17.008Z,22.77
2023-03-06T14:53:45.711Z,20.85
2023-03-06T14:56:17.611Z,18.00
2023-03-06T14:59:01.168Z,23.38
2023-03-06T15:01:40.466Z,18.40
2023-03-06T15:04:36.621Z,21.10
2023-03-06T15:07:09.476Z,21.75
2023-03-06T15:09:38.537Z,21.38
2023-03-06T15:12:31.116Z,21.55
2023-03-06T15:15:03.941Z,18.83
2023-03-06T15:17:38.104Z,20.90
2023-03-06T15:20:08.023Z,21.48
2023-03-06T15:22:41.827Z,19.38
2023-03-06T15:25:20.658Z,19.20
2023-03-06T15:27:50.444Z,20.48
2023-03-06T15:30:33.679Z,21.83
2023-03-06T15:35:37.952Z,24.67
2023-03-06T15:38:39.354Z,18.63
2023-03-06T15:41:07.660Z,23.17
2023-03-06T15:43:40.669Z,21.27
2023-03-06T15:48:35.427Z,20.67
2023-03-06T15:51:03.338Z,19.48
2023-03-06T15:53:30.449Z,23.35
2023-03-06T15:55:58.731Z,21.05
2023-03-06T15:58:30.659Z,18.05
2023-03-06T16:00:57.372Z,19.10
2023-03-06T16:03:23.982Z,20.45
2023-03-06T16:05:50.622Z,22.52
2023-03-06T16:08:17.275Z,18.45
2023-03-06T16:10:45.649Z,22.50
2023-03-06T16:13:22.049Z,23.10
2023-03-06T16:15:50.347Z,21.10
2023-03-06T16:18:18.202Z,18.85
2023-03-06T16:20:44.914Z,25.63
2023-03-06T16:23:11.621Z,20.58
2023-03-06T16:25:40.846Z,20.33
2023-03-06T16:28:12.570Z,19.83
2023-03-06T16:30:39.263Z,23.95
2023-03-06T16:33:06.082Z,22.63
2023-03-06T16:35:32.679Z,20.73
2023-03-06T16:38:00.104Z,19.92
2023-03-06T16:40:37.737Z,23.45
2023-03-06T16:43:05.362Z,21.73
2023-03-06T16:45:36.441Z,20.65
2023-03-06T16:48:03.657Z,21.85
2023-03-06T16:50:33.944Z,23.58
2023-03-06T16:53:00.652Z,21.35
2023-03-06T16:55:28.106Z,21.88
2023-03-06T16:57:54.928Z,20.60
2023-03-06T17:00:24.577Z,21.10
2023-03-06T17:02:52.351Z,24.48
2023-03-06T17:05:19.758Z,22.13
2023-03-06T17:07:47.152Z,25.25
2023-03-06T17:10:16.668Z,21.45
2023-03-06T17:12:43.609Z,23.27
2023-03-06T17:15:11.556Z,18.98
2023-03-06T17:17:38.439Z,22.60
2023-03-06T17:20:11.801Z,24.50
2023-03-06T17:22:38.823Z,23.35
2023-03-06T17:25:06.858Z,24.60
2023-03-06T17:27:34.494Z,26.15
2023-03-06T17:30:01.371Z,24.45
2023-03-06T17:32:28.491Z,25.60
2023-03-06T17:34:55.164Z,29.30
2023-03-06T17:37:21.906Z,24.40
2023-03-06T17:39:48.563Z,29.48
2023-03-06T17:42:15.578Z,28.73
2023-03-06T17:44:42.166Z,21.08
2023-03-06T17:47:08.746Z,21.92
2023-03-06T17:49:35.466Z,23.85
2023-03-06T17:52:02.868Z,23.35
2023-03-06T17:54:30.136Z,20.65
2023-03-06T17:57:01.060Z,24.58
2023-03-06T17:59:28.308Z,28.75
2023-03-06T18:01:59.104Z,28.55
2023-03-06T18:04:26.497Z,24.85
2023-03-06T18:06:53.271Z,22.15
2023-03-06T18:09:20.049Z,21.65
2023-03-06T18:11:46.702Z,23.85
2023-03-06T18:14:13.386Z,25.40
2023-03-06T18:16:40.100Z,21.42
2023-03-06T18:19:06.777Z,21.88
2023-03-06T18:21:33.392Z,25.15
2023-03-06T18:24:00.091Z,21.02
2023-03-06T18:26:28.518Z,18.80
2023-03-06T18:29:04.411Z,20.05
2023-03-06T18:31:34.803Z,19.73
2023-03-06T18:34:04.722Z,21.00
2023-03-06T18:36:33.152Z,18.30
2023-03-06T18:39:03.610Z,24.02
2023-03-06T18:41:31.047Z,19.58
2023-03-06T18:43:59.628Z,20.75
2023-03-06T18:46:30.762Z,21.63
2023-03-06T18:48:57.411Z,21.13
2023-03-06T18:51:24.040Z,20.50
2023-03-06T18:53:50.681Z,23.00
2023-03-06T18:56:20.277Z,23.73
2023-03-06T18:58:47.488Z,25.77
2023-03-06T19:01:14.537Z,28.23
2023-03-06T19:03:41.584Z,23.77
2023-03-06T19:06:10.776Z,27.15
2023-03-06T19:08:38.633Z,22.55
2023-03-06T19:11:10.859Z,24.65
2023-03-06T19:13:38.424Z,23.58
2023-03-06T19:16:06.052Z,25.15
2023-03-06T19:18:33.021Z,24.23
2023-03-06T19:21:16.348Z,26.92
2023-03-06T19:26:10.763Z,22.25
2023-03-06T19:28:39.511Z,23.58
2023-03-06T19:31:12.795Z,25.02
2023-03-06T19:36:09.534Z,25.55
2023-03-06T19:38:36.560Z,24.70
2023-03-06T19:41:03.708Z,29.00
2023-03-06T19:43:31.156Z,25.52
2023-03-06T19:45:58.270Z,26.50
2023-03-06T19:48:25.209Z,28.90
2023-03-06T19:50:52.388Z,28.17
2023-03-06T19:53:19.417Z,25.60
2023-03-06T19:55:46.292Z,25.90
2023-03-06T19:58:12.916Z,26.88
2023-03-06T20:00:39.657Z,28.95
2023-03-06T20:03:06.348Z,26.67
2023-03-06T20:05:33.081Z,25.70
2023-03-06T20:07:59.662Z,25.63
2023-03-06T20:10:26.604Z,22.88
2023-03-06T20:12:53.538Z,24.15
2023-03-06T20:15:22.259Z,26.38
2023-03-06T20:17:52.089Z,23.13
2023-03-06T20:20:21.442Z,23.08
2023-03-06T20:22:48.500Z,29.10
2023-03-06T20:25:15.558Z,27.52
2023-03-06T20:27:42.605Z,26.02
2023-03-06T20:30:09.755Z,27.02
2023-03-06T20:32:38.585Z,26.08
2023-03-06T20:35:05.915Z,27.38
2023-03-06T20:37:34.944Z,25.38
2023-03-06T20:40:01.853Z,26.33
2023-03-06T20:42:33.816Z,26.10
2023-03-06T20:45:00.664Z,29.15
2023-03-06T20:47:27.681Z,24.20
2023-03-06T20:49:54.750Z,23.67
2023-03-06T20:52:21.456Z,26.40
2023-03-06T20:54:48.307Z,24.13
2023-03-06T20:57:15.104Z,24.08
2023-03-06T20:59:45.189Z,23.98
2023-03-06T21:02:15.363Z,24.40
2023-03-06T21:04:42.218Z,26.70
2023-03-06T21:07:09.289Z,27.80
2023-03-06T21:09:37.751Z,26.25
2023-03-06T21:12:05.325Z,23.85
2023-03-06T21:14:32.117Z,25.50
2023-03-06T21:17:01.321Z,27.40
2023-03-06T21:19:28.390Z,24.55
2023-03-06T21:21:55.409Z,22.55
2023-03-06T21:24:24.799Z,27.23
2023-03-06T21:26:53.985Z,28.25
2023-03-06T21:29:23.041Z,27.33
2023-03-06T21:31:49.799Z,26.40
2023-03-06T21:34:19.121Z,26.13
2023-03-06T21:36:45.776Z,23.95
2023-03-06T21:39:12.475Z,27.90
2023-03-06T21:41:40.523Z,26.40
2023-03-06T21:44:07.740Z,29.10
2023-03-06T21:46:35.169Z,26.23
2023-03-06T21:49:04.344Z,24.73
2023-03-06T21:51:31.708Z,23.10
2023-03-06T21:53:59.074Z,25.60
2023-03-06T21:56:28.368Z,25.50
2023-03-06T21:58:56.298Z,24.08
2023-03-06T22:01:29.060Z,24.27
2023-03-06T22:04:00.508Z,24.40
2023-03-06T22:06:29.487Z,27.02
2023-03-06T22:08:57.332Z,23.70
2023-03-06T22:11:25.813Z,22.15
2023-03-06T22:13:55.062Z,22.88
2023-03-06T22:16:21.983Z,24.30
2023-03-06T22:18:50.664Z,23.95
2023-03-06T22:21:19.588Z,22.67
2023-03-06T22:23:57.726Z,24.50
2023-03-06T22:26:26.328Z,22.20
2023-03-06T22:28:53.358Z,22.02
2023-03-06T22:31:25.603Z,23.40
2023-03-06T22:33:53.910Z,25.38
2023-03-06T22:36:21.909Z,25.88
2023-03-06T22:38:49.213Z,20.83
2023-03-06T22:41:17.630Z,25.45
2023-03-06T22:43:44.293Z,25.15
2023-03-06T22:46:16.124Z,25.13
2023-03-06T22:48:43.576Z,23.60
2023-03-06T22:51:13.164Z,23.17
2023-03-06T22:53:40.618Z,24.85
2023-03-06T22:56:09.776Z,26.48
2023-03-06T22:58:37.538Z,23.42
2023-03-06T23:01:13.415Z,28.52
2023-03-06T23:03:42.269Z,27.08
2023-03-06T23:06:23.672Z,28.38
2023-03-06T23:08:57.266Z,22.38
2023-03-06T23:11:24.960Z,26.42
2023-03-06T23:14:14.956Z,25.13
2023-03-06T23:17:00.346Z,23.25
2023-03-06T23:19:45.594Z,23.58
2023-03-06T23:22:30.721Z,30.90
2023-03-06T23:25:16.371Z,26.23
2023-03-06T23:27:42.965Z,25.35
2023-03-06T23:30:10.400Z,31.27
2023-03-06T23:32:37.117Z,25.27
2023-03-06T23:35:04.626Z,28.73
2023-03-06T23:37:31.210Z,25.35
2023-03-06T23:39:58.158Z,25.67
2023-03-06T23:42:24.858Z,27.80
2023-03-06T23:44:51.676Z,24.67
2023-03-06T23:47:20.034Z,27.17
2023-03-06T23:49:46.609Z,26.83
2023-03-06T23:52:13.200Z,24.85
2023-03-06T23:54:39.817Z,25.20
2023-03-06T23:57:06.760Z,25.52
2023-03-06T23:59:33.373Z,26.42
